»·PEaware :: UAL2424 KPHX-KSFO

UAL2424 :: KPHX-KSFO

FLIGHT INFORMATION

Flight Status: Arrived
Operator:
United Airlines
More flights by this operator :: More flights under this callsign
Pilot: Kevin M. (7)
Aircraft: BOEING 737-800
(B738)
More flights by this aircraft type
Origin: KPHX Phoenix Sky Harbor Intl
United States
Destination: KSFO San Francisco Intl
United States
More flights between these airports :: More routes between these airports
Route: +MAYSA5 SISIE DOVEE BTY OAL INYOE DYAMD3
File this flight plan on PilotEdge
Remarks:
Altitude:
(Current/Filed)
32,000ft
Speed:
(Current/Filed)
0kts
Departed: 15-May-18 02:34 PM
Arrived: 15-May-18 04:06 PM
Distance/Time
Traveled:
565nm/1:31
Distance/Time
To Go:
Arrived

Flight Plot

Page will automatically refresh every two minutes.


Map Options




Map Legend


Flown Route
Filed Route
Departure Airport
Arrival Airport
Navaid (VOR, NDB)
Fix

Horizontal Profiles

Position Reports

Time Latitude Longitude Heading Altitude Ground
Speed
15-May-18 13:34 33.434383 -112.013260 288 1142ft 0kts
15-May-18 13:35 33.434383 -112.013260 288 1142ft 0kts
15-May-18 13:36 33.434383 -112.013260 288 1142ft 0kts
15-May-18 13:37 33.434383 -112.013260 288 1142ft 0kts
15-May-18 13:38 33.434383 -112.013260 288 1142ft 0kts
15-May-18 13:39 33.434383 -112.013260 288 1141ft 0kts
15-May-18 13:40 33.434383 -112.013260 288 1141ft 0kts
15-May-18 13:41 33.434383 -112.013260 288 1141ft 0kts
15-May-18 13:42 33.434383 -112.013260 288 1141ft 0kts
15-May-18 13:43 33.434383 -112.013260 288 1141ft 0kts
15-May-18 13:44 33.434383 -112.013260 288 1141ft 0kts
15-May-18 13:45 33.434383 -112.013260 288 1141ft 0kts
15-May-18 13:46 33.434383 -112.013260 288 1141ft 0kts
15-May-18 13:47 33.434383 -112.013260 288 1141ft 0kts
15-May-18 13:48 33.434299 -112.012926 288 1142ft 2kts
15-May-18 13:49 33.434372 -112.012331 215 1142ft 2kts
15-May-18 13:50 33.434587 -112.012248 185 1141ft 0kts
15-May-18 13:51 33.434587 -112.012248 185 1141ft 0kts
15-May-18 13:52 33.434587 -112.012248 185 1141ft 0kts
15-May-18 13:53 33.434587 -112.012248 185 1141ft 0kts
15-May-18 13:54 33.434587 -112.012248 185 1141ft 0kts
15-May-18 13:55 33.433738 -112.012330 184 1141ft 0kts
15-May-18 13:56 33.433640 -112.012338 184 1141ft 0kts
15-May-18 13:57 33.433556 -112.012345 183 1141ft 0kts
15-May-18 13:58 33.433556 -112.012345 183 1141ft 0kts
15-May-18 13:59 33.433556 -112.012345 183 1141ft 0kts
15-May-18 14:00 33.433556 -112.012345 183 1141ft 0kts
15-May-18 14:01 33.433556 -112.012345 183 1141ft 0kts
15-May-18 14:02 33.433556 -112.012345 183 1141ft 0kts
15-May-18 14:03 33.433556 -112.012345 183 1141ft 0kts
15-May-18 14:04 33.433556 -112.012345 183 1141ft 0kts
15-May-18 14:05 33.433556 -112.012345 183 1141ft 0kts
15-May-18 14:06 33.433556 -112.012345 183 1141ft 0kts
15-May-18 14:07 33.433556 -112.012345 183 1141ft 0kts
15-May-18 14:08 33.433556 -112.012345 183 1141ft 0kts
15-May-18 14:09 33.433556 -112.012345 183 1141ft 0kts
15-May-18 14:15 33.433556 -112.012345 183 1141ft 0kts
15-May-18 14:16 33.433556 -112.012345 183 1141ft 0kts
15-May-18 14:17 33.433556 -112.012345 183 1141ft 0kts
15-May-18 14:18 33.433556 -112.012345 183 1141ft 0kts
15-May-18 14:19 33.433556 -112.012345 183 1141ft 0kts
15-May-18 14:20 33.433556 -112.012345 183 1141ft 0kts
15-May-18 14:21 33.433556 -112.012345 183 1141ft 0kts
15-May-18 14:22 33.433360 -112.012279 158 1141ft 8kts
15-May-18 14:23 33.432855 -112.004465 91 1141ft 35kts
15-May-18 14:24 33.432126 -111.995565 91 1141ft 25kts
15-May-18 14:25 33.432134 -111.993798 97 1141ft 0kts
15-May-18 14:26 33.432124 -111.993694 96 1141ft 0kts
15-May-18 14:27 33.432109 -111.993546 96 1141ft 0kts
15-May-18 14:28 33.432096 -111.993396 95 1141ft 0kts
15-May-18 14:29 33.432084 -111.993251 95 1141ft 0kts
15-May-18 14:30 33.432073 -111.993107 94 1141ft 0kts
15-May-18 14:31 33.432069 -111.993045 94 1141ft 0kts
15-May-18 14:32 33.432069 -111.993045 94 1141ft 0kts
15-May-18 14:33 33.431056 -111.994583 269 1141ft 22kts
15-May-18 14:34 33.430932 -112.034457 270 1794ft 187kts
15-May-18 14:35 33.446805 -112.097082 315 3716ft 231kts
15-May-18 14:36 33.502045 -112.147000 320 5172ft 268kts
15-May-18 14:37 33.563038 -112.190374 349 7975ft 273kts
15-May-18 14:38 33.635283 -112.209912 346 10453ft 287kts
15-May-18 14:39 33.719444 -112.236063 345 11705ft 344kts
15-May-18 14:40 33.817687 -112.267397 345 13116ft 391kts
15-May-18 14:41 33.922438 -112.301121 345 15553ft 401kts
15-May-18 14:42 34.029769 -112.338756 334 17597ft 418kts
15-May-18 14:43 34.117675 -112.422430 321 19606ft 430kts
15-May-18 14:44 34.209109 -112.515191 321 21425ft 443kts
15-May-18 14:45 34.303810 -112.611238 320 23156ft 455kts
15-May-18 14:46 34.398201 -112.707125 320 24739ft 465kts
15-May-18 14:47 34.497457 -112.808193 320 26232ft 476kts
15-May-18 14:48 34.598372 -112.912685 318 27565ft 487kts
15-May-18 14:49 34.697529 -113.021167 318 29246ft 484kts
15-May-18 14:50 34.796172 -113.129471 319 30880ft 480kts
15-May-18 14:51 34.894232 -113.237413 318 32292ft 478kts
15-May-18 14:52 34.988351 -113.348935 304 33545ft 477kts
15-May-18 14:53 35.038920 -113.498243 292 33993ft 475kts
15-May-18 14:54 35.086215 -113.648193 292 33999ft 475kts
15-May-18 14:55 35.125343 -113.771357 292 34002ft 474kts
15-May-18 14:56 35.171828 -113.917833 292 34001ft 475kts
15-May-18 14:57 35.219169 -114.067516 291 34001ft 475kts
15-May-18 14:58 35.266358 -114.217344 292 34006ft 475kts
15-May-18 14:59 35.313078 -114.366321 292 34001ft 475kts
15-May-18 15:00 35.359771 -114.515939 292 33996ft 475kts
15-May-18 15:01 35.405274 -114.662444 291 34004ft 476kts
15-May-18 15:02 35.451579 -114.804395 302 33986ft 473kts
15-May-18 15:03 35.535758 -114.926912 312 33998ft 470kts
15-May-18 15:04 35.622112 -115.047295 312 33999ft 472kts
15-May-18 15:05 35.704216 -115.162614 311 34005ft 472kts
15-May-18 15:06 35.789792 -115.283454 312 33996ft 471kts
15-May-18 15:07 35.875362 -115.404829 312 34000ft 473kts
15-May-18 15:08 35.960759 -115.526460 311 33997ft 472kts
15-May-18 15:09 36.046176 -115.648607 312 34000ft 473kts
15-May-18 15:10 36.049905 -115.653952 311 33999ft 473kts
15-May-18 15:15 36.538983 -116.362661 311 33998ft 473kts
15-May-18 15:16 36.623760 -116.487059 311 33999ft 472kts
15-May-18 15:17 36.707858 -116.610919 311 33997ft 472kts
15-May-18 15:18 36.787344 -116.728425 310 33998ft 472kts
15-May-18 15:19 36.890900 -116.826237 327 33996ft 470kts
15-May-18 15:20 36.999867 -116.916278 327 33996ft 469kts
15-May-18 15:21 37.106712 -117.005565 327 33998ft 470kts
15-May-18 15:22 37.215194 -117.096775 326 33993ft 471kts
15-May-18 15:23 37.323173 -117.187996 326 34002ft 471kts
15-May-18 15:24 37.431127 -117.279593 326 33996ft 471kts
15-May-18 15:25 37.538868 -117.371363 326 34002ft 470kts
15-May-18 15:26 37.647122 -117.463937 326 33999ft 470kts
15-May-18 15:27 37.754888 -117.556428 327 34000ft 469kts
15-May-18 15:28 37.862637 -117.649243 326 33997ft 470kts
15-May-18 15:29 37.949635 -117.729994 312 33990ft 471kts
15-May-18 15:30 37.989227 -117.883258 266 34006ft 476kts
15-May-18 15:31 37.973018 -118.049670 263 33994ft 479kts
15-May-18 15:32 37.955473 -118.215227 263 34002ft 479kts
15-May-18 15:33 37.937883 -118.378505 263 33996ft 480kts
15-May-18 15:34 37.920023 -118.541718 263 34002ft 480kts
15-May-18 15:35 37.903346 -118.692040 262 33996ft 480kts
15-May-18 15:36 37.886158 -118.845129 262 34000ft 478kts
15-May-18 15:37 37.868377 -119.001456 262 33998ft 479kts
15-May-18 15:38 37.850046 -119.160627 262 33993ft 477kts
15-May-18 15:39 37.831260 -119.321665 262 33996ft 478kts
15-May-18 15:40 37.812095 -119.483946 262 33998ft 478kts
15-May-18 15:41 37.793398 -119.641771 259 34088ft 435kts
15-May-18 15:42 37.776294 -119.783185 259 34046ft 434kts
15-May-18 15:43 37.758055 -119.932136 259 34047ft 435kts
15-May-18 15:44 37.739482 -120.082494 259 34042ft 434kts
15-May-18 15:45 37.721314 -120.228430 259 34035ft 409kts
15-May-18 15:46 37.703323 -120.371365 258 31563ft 414kts
15-May-18 15:47 37.686371 -120.512922 259 29033ft 408kts
15-May-18 15:48 37.670351 -120.650368 258 26631ft 398kts
15-May-18 15:49 37.655975 -120.771976 258 24557ft 389kts
15-May-18 15:50 37.640410 -120.901418 258 22381ft 380kts
15-May-18 15:51 37.624480 -121.027966 257 20292ft 372kts
15-May-18 15:52 37.607617 -121.154143 257 18245ft 366kts
15-May-18 15:53 37.590877 -121.278752 258 16165ft 364kts
15-May-18 15:54 37.576456 -121.403437 259 14133ft 361kts
15-May-18 15:55 37.562061 -121.527332 260 11997ft 361kts
15-May-18 15:56 37.546121 -121.648951 251 10468ft 338kts
15-May-18 15:57 37.521446 -121.752134 250 9669ft 309kts
15-May-18 15:58 37.498275 -121.848038 251 8353ft 289kts
15-May-18 15:59 37.477538 -121.929211 249 8021ft 255kts
15-May-18 16:00 37.466496 -122.016479 287 6359ft 296kts
15-May-18 16:01 37.503464 -122.103648 297 4194ft 318kts
15-May-18 16:02 37.539542 -122.187074 296 3000ft 268kts
15-May-18 16:03 37.568896 -122.256545 296 1804ft 202kts
15-May-18 16:04 37.590952 -122.307984 295 1078ft 155kts
15-May-18 16:05 37.606523 -122.345656 295 329ft 151kts
15-May-18 16:06 37.619968 -122.378851 258 21ft 30kts
15-May-18 16:08 37.618850 -122.383812 280 21ft 0kts
15-May-18 16:09 37.618850 -122.383812 280 21ft 0kts

Navigation Log

Ident Type
1. KPHX Airport
2. SPRKY Fix
3. GOALY Fix
4. GOLDR Fix
5. ZEPER Fix
6. MAYSA Fix
7. SISIE Fix
8. DOVEE Fix
9. BTY Navaid
10. OAL Navaid
11. INYOE Fix
12. DYAMD Fix
13. LAANE Fix
14. ALWYS Fix
15. FLOWZ Fix
16. CEDES Fix
17. FRELY Fix
18. ARCHI Fix
19. KSFO Airport